AAL144 PHNL-KLAX
Flight info
| Callsign | AAL144 |
|---|---|
| Flight time | 5h 3m |
| Altitude | 41000 |
| Route | MKK5 KOLEA CLUTS R465 CIVIT R585 GITLE ADUMM GALIP R585 AUDIA SNAXX RYDRR2 |
| Aircraft | A332/H-SDE3GHIJ2J3J5M1RVWXY/LB2D1 |
Departure
| Time | 2026-04-22 13:46 |
|---|---|
| Airport | Daniel K. Inouye International Airport (PHNL) |
Arrival
| Time | 2026-04-22 18:49 |
|---|---|
| Airport | Los Angeles International Airport (KLAX) |
| Time | Latitude | Longitude | Altitude | Speed | Heading |
|---|---|---|---|---|---|
| 2026-04-22 13:20 | 21.32890 | -157.92326 | 28 ft | 0 kts | 319° |
| 2026-04-22 13:31 | 21.32872 | -157.92308 | 27 ft | 4 kts | 319° |
| 2026-04-22 13:31 | 21.32851 | -157.92289 | 28 ft | 4 kts | 319° |
| 2026-04-22 13:32 | 21.32833 | -157.92273 | 28 ft | 4 kts | 325° |
| 2026-04-22 13:32 | 21.32811 | -157.92261 | 28 ft | 4 kts | 359° |
| 2026-04-22 13:32 | 21.32787 | -157.92269 | 28 ft | 4 kts | 45° |
| 2026-04-22 13:32 | 21.32774 | -157.92292 | 28 ft | 4 kts | 81° |
| 2026-04-22 13:33 | 21.32773 | -157.92320 | 28 ft | 4 kts | 90° |
| 2026-04-22 13:33 | 21.32773 | -157.92336 | 28 ft | 0 kts | 90° |
| 2026-04-22 13:36 | 21.32773 | -157.92330 | 28 ft | 3 kts | 88° |
| 2026-04-22 13:36 | 21.32774 | -157.92290 | 28 ft | 6 kts | 94° |
| 2026-04-22 13:36 | 21.32731 | -157.92256 | 28 ft | 13 kts | 173° |
| 2026-04-22 13:37 | 21.32645 | -157.92256 | 28 ft | 12 kts | 181° |
| 2026-04-22 13:37 | 21.32565 | -157.92255 | 28 ft | 11 kts | 167° |
| 2026-04-22 13:37 | 21.32491 | -157.92212 | 28 ft | 14 kts | 148° |
| 2026-04-22 13:37 | 21.32406 | -157.92160 | 28 ft | 14 kts | 152° |
| 2026-04-22 13:38 | 21.32325 | -157.92113 | 28 ft | 13 kts | 150° |
| 2026-04-22 13:38 | 21.32179 | -157.92020 | 28 ft | 11 kts | 149° |
| 2026-04-22 13:38 | 21.32101 | -157.91975 | 28 ft | 13 kts | 152° |
| 2026-04-22 13:39 | 21.32056 | -157.91947 | 28 ft | 0 kts | 150° |
| 2026-04-22 13:40 | 21.32055 | -157.91946 | 28 ft | 1 kts | 150° |
| 2026-04-22 13:41 | 21.32023 | -157.91926 | 28 ft | 7 kts | 149° |
| 2026-04-22 13:41 | 21.31980 | -157.91899 | 28 ft | 7 kts | 149° |
| 2026-04-22 13:41 | 21.31931 | -157.91869 | 28 ft | 11 kts | 149° |
| 2026-04-22 13:41 | 21.31866 | -157.91828 | 28 ft | 11 kts | 149° |
| 2026-04-22 13:42 | 21.31805 | -157.91822 | 28 ft | 6 kts | 206° |
| 2026-04-22 13:42 | 21.31777 | -157.91874 | 28 ft | 12 kts | 235° |
| 2026-04-22 13:42 | 21.31745 | -157.91922 | 28 ft | 12 kts | 235° |
| 2026-04-22 13:42 | 21.31656 | -157.92054 | 28 ft | 22 kts | 233° |
| 2026-04-22 13:43 | 21.31621 | -157.92102 | 28 ft | 8 kts | 231° |
| 2026-04-22 13:43 | 21.31559 | -157.92186 | 28 ft | 21 kts | 231° |
| 2026-04-22 13:43 | 21.31446 | -157.92344 | 28 ft | 30 kts | 235° |
| 2026-04-22 13:43 | 21.31328 | -157.92516 | 28 ft | 28 kts | 231° |
| 2026-04-22 13:44 | 21.31292 | -157.92585 | 28 ft | 8 kts | 262° |
| 2026-04-22 13:44 | 21.31311 | -157.92626 | 28 ft | 6 kts | 309° |
| 2026-04-22 13:44 | 21.31372 | -157.92681 | 28 ft | 13 kts | 328° |
| 2026-04-22 13:44 | 21.31438 | -157.92655 | 28 ft | 10 kts | 55° |
| 2026-04-22 13:45 | 21.31510 | -157.92546 | 28 ft | 36 kts | 53° |
| 2026-04-22 13:45 | 21.31786 | -157.92158 | 28 ft | 93 kts | 53° |
| 2026-04-22 13:45 | 21.32291 | -157.91446 | 28 ft | 145 kts | 53° |
| 2026-04-22 13:45 | 21.32942 | -157.90503 | 370 ft | 163 kts | 54° |
| 2026-04-22 13:46 | 21.33621 | -157.89469 | 886 ft | 175 kts | 62° |
| 2026-04-22 13:46 | 21.34041 | -157.88219 | 1576 ft | 182 kts | 72° |
| 2026-04-22 13:46 | 21.34323 | -157.86965 | 2186 ft | 170 kts | 85° |
| 2026-04-22 13:46 | 21.34526 | -157.85700 | 2467 ft | 179 kts | 71° |
| 2026-04-22 13:47 | 21.35047 | -157.84432 | 2658 ft | 193 kts | 65° |
| 2026-04-22 13:47 | 21.35679 | -157.83118 | 3018 ft | 195 kts | 64° |
| 2026-04-22 13:47 | 21.36274 | -157.81851 | 3650 ft | 185 kts | 64° |
| 2026-04-22 13:47 | 21.36838 | -157.80641 | 4118 ft | 184 kts | 65° |
| 2026-04-22 13:48 | 21.37433 | -157.79309 | 4166 ft | 210 kts | 66° |
| 2026-04-22 13:48 | 21.38092 | -157.77837 | 4281 ft | 231 kts | 63° |
| 2026-04-22 13:48 | 21.38899 | -157.76267 | 4466 ft | 249 kts | 62° |
| 2026-04-22 13:48 | 21.39771 | -157.74586 | 4677 ft | 265 kts | 61° |
| 2026-04-22 13:49 | 21.40674 | -157.72815 | 5027 ft | 274 kts | 62° |
| 2026-04-22 13:49 | 21.41581 | -157.70993 | 5488 ft | 278 kts | 63° |
| 2026-04-22 13:49 | 21.42481 | -157.69162 | 5990 ft | 281 kts | 62° |
| 2026-04-22 13:49 | 21.43392 | -157.67291 | 6510 ft | 284 kts | 63° |
| 2026-04-22 13:50 | 21.44311 | -157.65397 | 6983 ft | 287 kts | 63° |
| 2026-04-22 13:50 | 21.45242 | -157.63471 | 7466 ft | 292 kts | 62° |
| 2026-04-22 13:50 | 21.46181 | -157.61527 | 7971 ft | 295 kts | 62° |
| 2026-04-22 13:50 | 21.47122 | -157.59577 | 8453 ft | 299 kts | 62° |
| 2026-04-22 13:51 | 21.48082 | -157.57585 | 9016 ft | 301 kts | 62° |
| 2026-04-22 13:51 | 21.49051 | -157.55573 | 9541 ft | 304 kts | 62° |
| 2026-04-22 13:51 | 21.50034 | -157.53533 | 10045 ft | 308 kts | 62° |
| 2026-04-22 13:51 | 21.51031 | -157.51461 | 10347 ft | 318 kts | 62° |
| 2026-04-22 13:52 | 21.52066 | -157.49310 | 10569 ft | 331 kts | 62° |
| 2026-04-22 13:52 | 21.53125 | -157.47105 | 10775 ft | 343 kts | 62° |
| 2026-04-22 13:52 | 21.54239 | -157.44786 | 10972 ft | 355 kts | 62° |
| 2026-04-22 13:52 | 21.55396 | -157.42380 | 11165 ft | 367 kts | 62° |
| 2026-04-22 13:53 | 21.56586 | -157.39903 | 11364 ft | 378 kts | 62° |
| 2026-04-22 13:53 | 21.57809 | -157.37358 | 11682 ft | 384 kts | 62° |
| 2026-04-22 13:53 | 21.59040 | -157.34796 | 12157 ft | 386 kts | 62° |
| 2026-04-22 13:53 | 21.60272 | -157.32229 | 12652 ft | 387 kts | 62° |
| 2026-04-22 13:54 | 21.61495 | -157.29678 | 13130 ft | 388 kts | 61° |
| 2026-04-22 13:54 | 21.62733 | -157.27095 | 13634 ft | 389 kts | 61° |
| 2026-04-22 13:54 | 21.63974 | -157.24504 | 14071 ft | 390 kts | 61° |
| 2026-04-22 13:54 | 21.65223 | -157.21893 | 14431 ft | 394 kts | 61° |
| 2026-04-22 13:55 | 21.66482 | -157.19263 | 14735 ft | 398 kts | 61° |
| 2026-04-22 13:55 | 21.67754 | -157.16603 | 15088 ft | 401 kts | 61° |
| 2026-04-22 13:55 | 21.69032 | -157.13929 | 15450 ft | 404 kts | 61° |
| 2026-04-22 13:55 | 21.70317 | -157.11240 | 15797 ft | 406 kts | 61° |
| 2026-04-22 13:56 | 21.71613 | -157.08525 | 16140 ft | 409 kts | 61° |
| 2026-04-22 13:56 | 21.72920 | -157.05787 | 16489 ft | 412 kts | 61° |
| 2026-04-22 13:56 | 21.74234 | -157.03031 | 16843 ft | 415 kts | 61° |
| 2026-04-22 13:56 | 21.75554 | -157.00263 | 17199 ft | 417 kts | 61° |
| 2026-04-22 13:57 | 21.76881 | -156.97475 | 17555 ft | 419 kts | 61° |
| 2026-04-22 13:57 | 21.78214 | -156.94678 | 17899 ft | 422 kts | 61° |
| 2026-04-22 13:57 | 21.79556 | -156.91857 | 18221 ft | 425 kts | 61° |
| 2026-04-22 13:57 | 21.80906 | -156.89021 | 18524 ft | 427 kts | 61° |
| 2026-04-22 13:58 | 21.82265 | -156.86161 | 18778 ft | 431 kts | 61° |
| 2026-04-22 13:58 | 21.83615 | -156.83320 | 19050 ft | 433 kts | 61° |
| 2026-04-22 13:58 | 21.85007 | -156.80387 | 19339 ft | 435 kts | 61° |
| 2026-04-22 13:58 | 21.86370 | -156.77515 | 19605 ft | 437 kts | 61° |
| 2026-04-22 13:59 | 21.87757 | -156.74590 | 19876 ft | 440 kts | 61° |
| 2026-04-22 13:59 | 21.89150 | -156.71653 | 20143 ft | 442 kts | 61° |
| 2026-04-22 13:59 | 21.90550 | -156.68698 | 20406 ft | 444 kts | 61° |
| 2026-04-22 13:59 | 21.91958 | -156.65727 | 20668 ft | 446 kts | 61° |
| 2026-04-22 14:00 | 21.93371 | -156.62742 | 20926 ft | 448 kts | 61° |
| 2026-04-22 14:00 | 21.94790 | -156.59740 | 21175 ft | 451 kts | 61° |
| 2026-04-22 14:00 | 21.96215 | -156.56724 | 21436 ft | 453 kts | 61° |
| 2026-04-22 14:00 | 21.97647 | -156.53692 | 21666 ft | 456 kts | 61° |
| 2026-04-22 14:01 | 21.99088 | -156.50641 | 21965 ft | 457 kts | 61° |
| 2026-04-22 14:01 | 22.00529 | -156.47586 | 22237 ft | 458 kts | 61° |
| 2026-04-22 14:01 | 22.01975 | -156.44519 | 22489 ft | 461 kts | 61° |
| 2026-04-22 14:01 | 22.03430 | -156.41433 | 22734 ft | 463 kts | 62° |
| 2026-04-22 14:02 | 22.04889 | -156.38335 | 22982 ft | 465 kts | 62° |
| 2026-04-22 14:02 | 22.06357 | -156.35217 | 23226 ft | 467 kts | 62° |
| 2026-04-22 14:02 | 22.07830 | -156.32086 | 23483 ft | 469 kts | 62° |
| 2026-04-22 14:02 | 22.09306 | -156.28943 | 23690 ft | 471 kts | 62° |
| 2026-04-22 14:03 | 22.10790 | -156.25786 | 23920 ft | 473 kts | 62° |
| 2026-04-22 14:03 | 22.12279 | -156.22617 | 24150 ft | 474 kts | 62° |
| 2026-04-22 14:03 | 22.13769 | -156.19440 | 24375 ft | 475 kts | 62° |
| 2026-04-22 14:03 | 22.15262 | -156.16259 | 24607 ft | 476 kts | 62° |
| 2026-04-22 14:04 | 22.16740 | -156.13106 | 24833 ft | 477 kts | 62° |
| 2026-04-22 14:04 | 22.18241 | -156.09905 | 25065 ft | 479 kts | 62° |
| 2026-04-22 14:04 | 22.19742 | -156.06697 | 25284 ft | 480 kts | 62° |
| 2026-04-22 14:04 | 22.21246 | -156.03477 | 25526 ft | 481 kts | 62° |
| 2026-04-22 14:05 | 22.22755 | -156.00251 | 25770 ft | 481 kts | 61° |
| 2026-04-22 14:05 | 22.24264 | -155.97020 | 25983 ft | 483 kts | 61° |
| 2026-04-22 14:05 | 22.27295 | -155.90527 | 26423 ft | 485 kts | 61° |
| 2026-04-22 14:06 | 22.28814 | -155.87270 | 26651 ft | 486 kts | 61° |
| 2026-04-22 14:06 | 22.30334 | -155.84008 | 26862 ft | 487 kts | 61° |
| 2026-04-22 14:06 | 22.31860 | -155.80730 | 27074 ft | 489 kts | 61° |
| 2026-04-22 14:06 | 22.33392 | -155.77438 | 27288 ft | 490 kts | 61° |
| 2026-04-22 14:07 | 22.34925 | -155.74141 | 27494 ft | 491 kts | 61° |
| 2026-04-22 14:07 | 22.36460 | -155.70840 | 27698 ft | 492 kts | 61° |
| 2026-04-22 14:07 | 22.37999 | -155.67527 | 27903 ft | 494 kts | 61° |
| 2026-04-22 14:07 | 22.39541 | -155.64203 | 28109 ft | 495 kts | 61° |
| 2026-04-22 14:08 | 22.41084 | -155.60877 | 28308 ft | 496 kts | 61° |
| 2026-04-22 14:08 | 22.42611 | -155.57584 | 28519 ft | 497 kts | 61° |
| 2026-04-22 14:08 | 22.44165 | -155.54228 | 28694 ft | 498 kts | 61° |
| 2026-04-22 14:08 | 22.45719 | -155.50872 | 28936 ft | 498 kts | 61° |
| 2026-04-22 14:09 | 22.47268 | -155.47522 | 29236 ft | 497 kts | 60° |
| 2026-04-22 14:09 | 22.48811 | -155.44184 | 29563 ft | 495 kts | 60° |
| 2026-04-22 14:09 | 22.50347 | -155.40858 | 29841 ft | 494 kts | 60° |
| 2026-04-22 14:09 | 22.51880 | -155.37535 | 30111 ft | 493 kts | 60° |
| 2026-04-22 14:10 | 22.53411 | -155.34216 | 30322 ft | 493 kts | 60° |
| 2026-04-22 14:10 | 22.54940 | -155.30899 | 30489 ft | 494 kts | 60° |
| 2026-04-22 14:10 | 22.56472 | -155.27575 | 30669 ft | 494 kts | 60° |
| 2026-04-22 14:10 | 22.58004 | -155.24247 | 30859 ft | 494 kts | 60° |
| 2026-04-22 14:11 | 22.59536 | -155.20915 | 31038 ft | 494 kts | 60° |
| 2026-04-22 14:11 | 22.61039 | -155.17619 | 31230 ft | 494 kts | 60° |
| 2026-04-22 14:11 | 22.62576 | -155.14243 | 31406 ft | 495 kts | 60° |
| 2026-04-22 14:11 | 22.64095 | -155.10899 | 31590 ft | 495 kts | 60° |
| 2026-04-22 14:12 | 22.65613 | -155.07552 | 31753 ft | 496 kts | 60° |
| 2026-04-22 14:12 | 22.67113 | -155.04223 | 31878 ft | 497 kts | 61° |
| 2026-04-22 14:12 | 22.68626 | -155.00863 | 32061 ft | 497 kts | 61° |
| 2026-04-22 14:12 | 22.70142 | -154.97493 | 32281 ft | 497 kts | 60° |
| 2026-04-22 14:13 | 22.71653 | -154.94125 | 32454 ft | 497 kts | 60° |
| 2026-04-22 14:13 | 22.73162 | -154.90750 | 32645 ft | 497 kts | 61° |
| 2026-04-22 14:13 | 22.74669 | -154.87378 | 32816 ft | 497 kts | 60° |
| 2026-04-22 14:13 | 22.76176 | -154.84006 | 32988 ft | 497 kts | 60° |
| 2026-04-22 14:14 | 22.77678 | -154.80643 | 33158 ft | 497 kts | 61° |
| 2026-04-22 14:14 | 22.79188 | -154.77263 | 33338 ft | 497 kts | 60° |
| 2026-04-22 14:14 | 22.80695 | -154.73887 | 33491 ft | 497 kts | 61° |
| 2026-04-22 14:14 | 22.82185 | -154.70554 | 33646 ft | 497 kts | 60° |
| 2026-04-22 14:15 | 22.83690 | -154.67182 | 33806 ft | 497 kts | 61° |
| 2026-04-22 14:15 | 22.85198 | -154.63805 | 33939 ft | 497 kts | 61° |
| 2026-04-22 14:15 | 22.86705 | -154.60426 | 34112 ft | 497 kts | 61° |
| 2026-04-22 14:15 | 22.88213 | -154.57051 | 34286 ft | 496 kts | 60° |
| 2026-04-22 14:16 | 22.89713 | -154.53684 | 34482 ft | 494 kts | 61° |
| 2026-04-22 14:16 | 22.91206 | -154.50325 | 34652 ft | 493 kts | 60° |
| 2026-04-22 14:16 | 22.92692 | -154.46975 | 34812 ft | 492 kts | 61° |
| 2026-04-22 14:16 | 22.94174 | -154.43632 | 34960 ft | 491 kts | 60° |
| 2026-04-22 14:17 | 22.95650 | -154.40293 | 35121 ft | 490 kts | 60° |
| 2026-04-22 14:17 | 22.97119 | -154.36965 | 35255 ft | 489 kts | 61° |
| 2026-04-22 14:17 | 22.98567 | -154.33671 | 35410 ft | 489 kts | 61° |
| 2026-04-22 14:17 | 23.00020 | -154.30345 | 35544 ft | 488 kts | 61° |
| 2026-04-22 14:18 | 23.01475 | -154.27006 | 35676 ft | 487 kts | 61° |
| 2026-04-22 14:18 | 23.02922 | -154.23677 | 35813 ft | 486 kts | 60° |
| 2026-04-22 14:18 | 23.04361 | -154.20361 | 35926 ft | 486 kts | 60° |
| 2026-04-22 14:18 | 23.05801 | -154.17040 | 36047 ft | 485 kts | 60° |
| 2026-04-22 14:19 | 23.07232 | -154.13733 | 36161 ft | 484 kts | 60° |
| 2026-04-22 14:19 | 23.08665 | -154.10416 | 36265 ft | 484 kts | 61° |
| 2026-04-22 14:19 | 23.10093 | -154.07106 | 36373 ft | 483 kts | 61° |
| 2026-04-22 14:19 | 23.11518 | -154.03798 | 36481 ft | 483 kts | 60° |
| 2026-04-22 14:20 | 23.14351 | -153.97187 | 36688 ft | 482 kts | 61° |
| 2026-04-22 14:20 | 23.17172 | -153.90581 | 36811 ft | 482 kts | 61° |
| 2026-04-22 14:21 | 23.19998 | -153.83953 | 36930 ft | 483 kts | 61° |
| 2026-04-22 14:21 | 23.21411 | -153.80639 | 36978 ft | 484 kts | 61° |
| 2026-04-22 14:22 | 23.24220 | -153.74041 | 37090 ft | 484 kts | 61° |
| 2026-04-22 14:22 | 23.25631 | -153.70712 | 37154 ft | 484 kts | 60° |
| 2026-04-22 14:22 | 23.28576 | -153.64121 | 37255 ft | 480 kts | 53° |
| 2026-04-22 14:23 | 23.30465 | -153.61137 | 37280 ft | 474 kts | 45° |
| 2026-04-22 14:23 | 23.35269 | -153.56419 | 37352 ft | 461 kts | 27° |
| 2026-04-22 14:24 | 23.40920 | -153.53369 | 37457 ft | 455 kts | 19° |
| 2026-04-22 14:24 | 23.46760 | -153.50723 | 37545 ft | 454 kts | 18° |
| 2026-04-22 14:25 | 23.52626 | -153.48126 | 37625 ft | 455 kts | 18° |
| 2026-04-22 14:25 | 23.58470 | -153.45501 | 37793 ft | 454 kts | 18° |
| 2026-04-22 14:26 | 23.64308 | -153.42848 | 37863 ft | 455 kts | 18° |
| 2026-04-22 14:26 | 23.70151 | -153.40180 | 37963 ft | 455 kts | 18° |
| 2026-04-22 14:27 | 23.75784 | -153.37064 | 38014 ft | 463 kts | 30° |
| 2026-04-22 14:27 | 23.80555 | -153.32201 | 38045 ft | 478 kts | 47° |
| 2026-04-22 14:28 | 23.84392 | -153.26204 | 38124 ft | 482 kts | 51° |
| 2026-04-22 14:28 | 23.88028 | -153.20026 | 38184 ft | 483 kts | 52° |
| 2026-04-22 14:29 | 23.91040 | -153.14882 | 38243 ft | 484 kts | 51° |
| 2026-04-22 14:29 | 23.94695 | -153.08700 | 38332 ft | 483 kts | 51° |
| 2026-04-22 14:30 | 23.98364 | -153.02532 | 38408 ft | 483 kts | 51° |
| 2026-04-22 14:30 | 24.02004 | -152.96417 | 38518 ft | 482 kts | 51° |
| 2026-04-22 14:31 | 24.05662 | -152.90263 | 38621 ft | 481 kts | 51° |
| 2026-04-22 14:31 | 24.09309 | -152.84113 | 38678 ft | 481 kts | 51° |
| 2026-04-22 14:32 | 24.12955 | -152.77961 | 38735 ft | 481 kts | 51° |
| 2026-04-22 14:32 | 24.16597 | -152.71807 | 38799 ft | 481 kts | 51° |
| 2026-04-22 14:33 | 24.20209 | -152.65695 | 38825 ft | 481 kts | 51° |
| 2026-04-22 14:33 | 24.23846 | -152.59541 | 38882 ft | 481 kts | 51° |
| 2026-04-22 14:34 | 24.27482 | -152.53377 | 38919 ft | 481 kts | 51° |
| 2026-04-22 14:34 | 24.31112 | -152.47214 | 38978 ft | 480 kts | 51° |
| 2026-04-22 14:35 | 24.34731 | -152.41058 | 39002 ft | 480 kts | 51° |
| 2026-04-22 14:35 | 24.38325 | -152.34936 | 39020 ft | 480 kts | 51° |
| 2026-04-22 14:36 | 24.41947 | -152.28774 | 39054 ft | 480 kts | 51° |
| 2026-04-22 14:36 | 24.45559 | -152.22604 | 39107 ft | 480 kts | 51° |
| 2026-04-22 14:37 | 24.49175 | -152.16425 | 39130 ft | 480 kts | 50° |
| 2026-04-22 14:37 | 24.52781 | -152.10260 | 39169 ft | 480 kts | 50° |
| 2026-04-22 14:38 | 24.56387 | -152.04091 | 39193 ft | 480 kts | 50° |
| 2026-04-22 14:38 | 24.59966 | -151.97950 | 39196 ft | 480 kts | 51° |
| 2026-04-22 14:39 | 24.63565 | -151.91760 | 39241 ft | 480 kts | 50° |
| 2026-04-22 14:39 | 24.67164 | -151.85573 | 39273 ft | 480 kts | 50° |
| 2026-04-22 14:40 | 24.72559 | -151.76289 | 39295 ft | 480 kts | 50° |
| 2026-04-22 14:40 | 24.76123 | -151.70134 | 39306 ft | 480 kts | 50° |
| 2026-04-22 14:41 | 24.79706 | -151.63945 | 39323 ft | 480 kts | 50° |
| 2026-04-22 14:41 | 24.83289 | -151.57741 | 39353 ft | 480 kts | 50° |
| 2026-04-22 14:42 | 24.86872 | -151.51542 | 39371 ft | 480 kts | 50° |
| 2026-04-22 14:42 | 24.90453 | -151.45337 | 39379 ft | 480 kts | 50° |
| 2026-04-22 14:43 | 24.94031 | -151.39131 | 39392 ft | 480 kts | 50° |
| 2026-04-22 14:43 | 24.97607 | -151.32917 | 39410 ft | 480 kts | 50° |
| 2026-04-22 14:44 | 25.01158 | -151.26735 | 39430 ft | 480 kts | 50° |
| 2026-04-22 14:44 | 25.04713 | -151.20528 | 39697 ft | 472 kts | 50° |
| 2026-04-22 14:45 | 25.06443 | -151.17492 | 40060 ft | 463 kts | 49° |
| 2026-04-22 14:45 | 25.08145 | -151.14508 | 40408 ft | 454 kts | 49° |
| 2026-04-22 14:45 | 25.09806 | -151.11595 | 40758 ft | 443 kts | 49° |
| 2026-04-22 14:45 | 25.11432 | -151.08747 | 41027 ft | 435 kts | 49° |
| 2026-04-22 14:46 | 25.14643 | -151.03146 | 41100 ft | 429 kts | 48° |
| 2026-04-22 14:46 | 25.17800 | -150.97640 | 41096 ft | 424 kts | 48° |
| 2026-04-22 14:47 | 25.20928 | -150.92162 | 41093 ft | 418 kts | 49° |
| 2026-04-22 14:47 | 25.24006 | -150.86758 | 41090 ft | 412 kts | 48° |
| 2026-04-22 14:48 | 25.27026 | -150.81445 | 41094 ft | 404 kts | 48° |
| 2026-04-22 14:48 | 25.29982 | -150.76242 | 41086 ft | 395 kts | 48° |
| 2026-04-22 14:49 | 25.32862 | -150.71165 | 41086 ft | 384 kts | 48° |
| 2026-04-22 14:49 | 25.35647 | -150.66150 | 40718 ft | 387 kts | 50° |
| 2026-04-22 14:50 | 25.36976 | -150.63528 | 40422 ft | 394 kts | 52° |
| 2026-04-22 14:50 | 25.38254 | -150.60804 | 39892 ft | 408 kts | 54° |
| 2026-04-22 14:50 | 25.39516 | -150.57907 | 39228 ft | 428 kts | 56° |
| 2026-04-22 14:50 | 25.40737 | -150.54869 | 38602 ft | 446 kts | 59° |
| 2026-04-22 14:51 | 25.41928 | -150.51652 | 37863 ft | 455 kts | 59° |
| 2026-04-22 14:51 | 25.43479 | -150.48652 | 36952 ft | 448 kts | 45° |
| 2026-04-22 14:51 | 25.45493 | -150.46011 | 36392 ft | 451 kts | 40° |
| 2026-04-22 14:51 | 25.47606 | -150.43403 | 36133 ft | 458 kts | 42° |
| 2026-04-22 14:52 | 25.51605 | -150.37804 | 36101 ft | 469 kts | 48° |
| 2026-04-22 14:52 | 25.55247 | -150.31729 | 36096 ft | 474 kts | 51° |
| 2026-04-22 14:53 | 25.58694 | -150.25544 | 36095 ft | 474 kts | 52° |
| 2026-04-22 14:53 | 25.62144 | -150.19309 | 36095 ft | 474 kts | 51° |
| 2026-04-22 14:54 | 25.65613 | -150.13087 | 36098 ft | 474 kts | 51° |
| 2026-04-22 14:54 | 25.69095 | -150.06865 | 36096 ft | 474 kts | 51° |
| 2026-04-22 14:55 | 25.72549 | -150.00691 | 36098 ft | 474 kts | 51° |
| 2026-04-22 14:55 | 25.76034 | -149.94456 | 36096 ft | 474 kts | 51° |
| 2026-04-22 14:56 | 25.79506 | -149.88230 | 36104 ft | 474 kts | 52° |
| 2026-04-22 14:56 | 25.82962 | -149.82027 | 36102 ft | 473 kts | 52° |
| 2026-04-22 14:57 | 25.86429 | -149.75791 | 36100 ft | 474 kts | 52° |
| 2026-04-22 14:57 | 25.89882 | -149.69578 | 36103 ft | 475 kts | 52° |
| 2026-04-22 14:58 | 25.93355 | -149.63316 | 36099 ft | 475 kts | 52° |
| 2026-04-22 14:58 | 25.96802 | -149.57097 | 36101 ft | 475 kts | 52° |
| 2026-04-22 14:59 | 26.00263 | -149.50836 | 36101 ft | 474 kts | 52° |
| 2026-04-22 14:59 | 26.03706 | -149.44595 | 36102 ft | 475 kts | 52° |
| 2026-04-22 15:00 | 26.07167 | -149.38319 | 36106 ft | 476 kts | 52° |
| 2026-04-22 15:00 | 26.10644 | -149.32013 | 36103 ft | 476 kts | 52° |
| 2026-04-22 15:01 | 26.14102 | -149.25737 | 36102 ft | 477 kts | 53° |
| 2026-04-22 15:01 | 26.17548 | -149.19468 | 36102 ft | 477 kts | 53° |
| 2026-04-22 15:02 | 26.21005 | -149.13164 | 36118 ft | 477 kts | 52° |
| 2026-04-22 15:02 | 26.24474 | -149.06832 | 36105 ft | 478 kts | 52° |
| 2026-04-22 15:03 | 26.27943 | -149.00494 | 36110 ft | 479 kts | 53° |
| 2026-04-22 15:03 | 26.31391 | -148.94183 | 36111 ft | 479 kts | 53° |
| 2026-04-22 15:04 | 26.34860 | -148.87826 | 36108 ft | 479 kts | 53° |
| 2026-04-22 15:04 | 26.38328 | -148.81460 | 36105 ft | 479 kts | 53° |
| 2026-04-22 15:05 | 26.41772 | -148.75129 | 36111 ft | 480 kts | 53° |
| 2026-04-22 15:05 | 26.45242 | -148.68745 | 36111 ft | 481 kts | 53° |
| 2026-04-22 15:06 | 26.48712 | -148.62345 | 36111 ft | 481 kts | 53° |
| 2026-04-22 15:06 | 26.52161 | -148.55978 | 36113 ft | 481 kts | 53° |
| 2026-04-22 15:07 | 26.55608 | -148.49608 | 36116 ft | 481 kts | 53° |
| 2026-04-22 15:07 | 26.59077 | -148.43190 | 36118 ft | 482 kts | 53° |
| 2026-04-22 15:08 | 26.62547 | -148.36757 | 36115 ft | 483 kts | 53° |
| 2026-04-22 15:08 | 26.65993 | -148.30360 | 36116 ft | 483 kts | 53° |
| 2026-04-22 15:09 | 26.69463 | -148.23909 | 36115 ft | 483 kts | 53° |
| 2026-04-22 15:09 | 26.72912 | -148.17493 | 36113 ft | 483 kts | 54° |
| 2026-04-22 15:10 | 26.76383 | -148.11020 | 36126 ft | 484 kts | 53° |
| 2026-04-22 15:10 | 26.79843 | -148.04545 | 36123 ft | 484 kts | 53° |
| 2026-04-22 15:11 | 26.83285 | -147.98108 | 36126 ft | 484 kts | 53° |
| 2026-04-22 15:11 | 26.86753 | -147.91615 | 36130 ft | 484 kts | 53° |
| 2026-04-22 15:12 | 26.90202 | -147.85164 | 36128 ft | 485 kts | 54° |
| 2026-04-22 15:12 | 26.93646 | -147.78690 | 36124 ft | 485 kts | 53° |
| 2026-04-22 15:13 | 26.97102 | -147.72182 | 36122 ft | 485 kts | 53° |
| 2026-04-22 15:13 | 27.00565 | -147.65665 | 36122 ft | 485 kts | 53° |
| 2026-04-22 15:14 | 27.04019 | -147.59142 | 36124 ft | 485 kts | 54° |
| 2026-04-22 15:14 | 27.07444 | -147.52656 | 36124 ft | 486 kts | 54° |
| 2026-04-22 15:15 | 27.10893 | -147.46127 | 36127 ft | 486 kts | 54° |
| 2026-04-22 15:15 | 27.14343 | -147.39596 | 36127 ft | 486 kts | 54° |
| 2026-04-22 15:16 | 27.17769 | -147.33097 | 36126 ft | 485 kts | 54° |
| 2026-04-22 15:16 | 27.21198 | -147.26573 | 36130 ft | 484 kts | 54° |
| 2026-04-22 15:17 | 27.24542 | -147.20032 | 36130 ft | 486 kts | 57° |
| 2026-04-22 15:17 | 27.27544 | -147.13197 | 36134 ft | 489 kts | 59° |
| 2026-04-22 15:18 | 27.29965 | -147.07418 | 36132 ft | 491 kts | 59° |
| 2026-04-22 15:18 | 27.32892 | -147.00488 | 36135 ft | 491 kts | 59° |
| 2026-04-22 15:19 | 27.35859 | -146.93550 | 36135 ft | 490 kts | 59° |
| 2026-04-22 15:19 | 27.38824 | -146.86641 | 36135 ft | 490 kts | 59° |
| 2026-04-22 15:20 | 27.41775 | -146.79761 | 36135 ft | 490 kts | 59° |
| 2026-04-22 15:20 | 27.44744 | -146.72814 | 36138 ft | 491 kts | 59° |
| 2026-04-22 15:21 | 27.47685 | -146.65915 | 36138 ft | 492 kts | 59° |
| 2026-04-22 15:21 | 27.50656 | -146.58953 | 36140 ft | 492 kts | 59° |
| 2026-04-22 15:22 | 27.53621 | -146.51997 | 36143 ft | 492 kts | 59° |
| 2026-04-22 15:22 | 27.56566 | -146.45069 | 36143 ft | 492 kts | 59° |
| 2026-04-22 15:23 | 27.59544 | -146.38096 | 36147 ft | 494 kts | 58° |
| 2026-04-22 15:23 | 27.62532 | -146.31098 | 36146 ft | 496 kts | 58° |
| 2026-04-22 15:24 | 27.65497 | -146.24102 | 36146 ft | 496 kts | 59° |
| 2026-04-22 15:24 | 27.67721 | -146.18832 | 36146 ft | 497 kts | 59° |
| 2026-04-22 15:25 | 27.70693 | -146.11773 | 36151 ft | 497 kts | 59° |
| 2026-04-22 15:25 | 27.73642 | -146.04758 | 36154 ft | 497 kts | 59° |
| 2026-04-22 15:26 | 27.76618 | -145.97670 | 36157 ft | 498 kts | 59° |
| 2026-04-22 15:26 | 27.79569 | -145.90626 | 36156 ft | 498 kts | 59° |
| 2026-04-22 15:27 | 27.82539 | -145.83525 | 36160 ft | 499 kts | 59° |
| 2026-04-22 15:27 | 27.85501 | -145.76434 | 36164 ft | 499 kts | 59° |
| 2026-04-22 15:28 | 27.88450 | -145.69364 | 36168 ft | 500 kts | 60° |
| 2026-04-22 15:28 | 27.91420 | -145.62224 | 36170 ft | 502 kts | 60° |
| 2026-04-22 15:29 | 27.94377 | -145.55102 | 36177 ft | 502 kts | 60° |
| 2026-04-22 15:30 | 27.98833 | -145.44351 | 36172 ft | 503 kts | 60° |
| 2026-04-22 15:30 | 28.01781 | -145.37219 | 36175 ft | 503 kts | 60° |
| 2026-04-22 15:31 | 28.04754 | -145.30015 | 36179 ft | 504 kts | 61° |
| 2026-04-22 15:31 | 28.07705 | -145.22856 | 36175 ft | 505 kts | 61° |
| 2026-04-22 15:32 | 28.10674 | -145.15636 | 36184 ft | 506 kts | 61° |
| 2026-04-22 15:32 | 28.13645 | -145.08396 | 36182 ft | 506 kts | 62° |
| 2026-04-22 15:33 | 28.16594 | -145.01197 | 36197 ft | 506 kts | 62° |
| 2026-04-22 15:33 | 28.19564 | -144.93942 | 36185 ft | 507 kts | 62° |
| 2026-04-22 15:34 | 28.22515 | -144.86712 | 36182 ft | 507 kts | 62° |
| 2026-04-22 15:34 | 28.25479 | -144.79436 | 36183 ft | 507 kts | 62° |
| 2026-04-22 15:35 | 28.28441 | -144.72153 | 36185 ft | 508 kts | 62° |
| 2026-04-22 15:35 | 28.31405 | -144.64853 | 36189 ft | 509 kts | 63° |
| 2026-04-22 15:36 | 28.34349 | -144.57588 | 36191 ft | 509 kts | 63° |
| 2026-04-22 15:36 | 28.37307 | -144.50274 | 36189 ft | 509 kts | 63° |
| 2026-04-22 15:37 | 28.40259 | -144.42960 | 36191 ft | 509 kts | 63° |
| 2026-04-22 15:37 | 28.43196 | -144.35671 | 36192 ft | 510 kts | 63° |
| 2026-04-22 15:38 | 28.46150 | -144.28326 | 36196 ft | 510 kts | 63° |
| 2026-04-22 15:38 | 28.50555 | -144.17347 | 36194 ft | 509 kts | 63° |
| 2026-04-22 15:39 | 28.53494 | -144.10005 | 36198 ft | 509 kts | 63° |
| 2026-04-22 15:39 | 28.56407 | -144.02714 | 36198 ft | 509 kts | 63° |
| 2026-04-22 15:40 | 28.59338 | -143.95362 | 36199 ft | 508 kts | 63° |
| 2026-04-22 15:40 | 28.62256 | -143.88031 | 36201 ft | 507 kts | 63° |
| 2026-04-22 15:41 | 28.65144 | -143.80760 | 36203 ft | 506 kts | 63° |
| 2026-04-22 15:41 | 28.68045 | -143.73446 | 36193 ft | 506 kts | 63° |
| 2026-04-22 15:42 | 28.70938 | -143.66134 | 36205 ft | 506 kts | 63° |
| 2026-04-22 15:42 | 28.73815 | -143.58853 | 36206 ft | 506 kts | 64° |
| 2026-04-22 15:43 | 28.76706 | -143.51518 | 36206 ft | 507 kts | 64° |
| 2026-04-22 15:43 | 28.79592 | -143.44184 | 36207 ft | 507 kts | 64° |
| 2026-04-22 15:44 | 28.82458 | -143.36885 | 36208 ft | 507 kts | 64° |
| 2026-04-22 15:44 | 28.85344 | -143.29523 | 36213 ft | 507 kts | 64° |
| 2026-04-22 15:45 | 28.88215 | -143.22186 | 36215 ft | 507 kts | 64° |
| 2026-04-22 15:45 | 28.91090 | -143.14821 | 36212 ft | 506 kts | 64° |
| 2026-04-22 15:46 | 28.93934 | -143.07521 | 36213 ft | 506 kts | 64° |
| 2026-04-22 15:46 | 28.96794 | -143.00167 | 36212 ft | 506 kts | 64° |
| 2026-04-22 15:47 | 28.99649 | -142.92815 | 36217 ft | 506 kts | 64° |
| 2026-04-22 15:47 | 29.02484 | -142.85496 | 36219 ft | 506 kts | 64° |
| 2026-04-22 15:48 | 29.05338 | -142.78114 | 36220 ft | 506 kts | 64° |
| 2026-04-22 15:48 | 29.08164 | -142.70792 | 36218 ft | 505 kts | 64° |
| 2026-04-22 15:49 | 29.11000 | -142.63430 | 36226 ft | 505 kts | 65° |
| 2026-04-22 15:49 | 29.13834 | -142.56059 | 36225 ft | 506 kts | 65° |
| 2026-04-22 15:50 | 29.16650 | -142.48717 | 36227 ft | 506 kts | 65° |
| 2026-04-22 15:50 | 29.19477 | -142.41331 | 36228 ft | 505 kts | 65° |
| 2026-04-22 15:51 | 29.22279 | -142.33998 | 36225 ft | 505 kts | 65° |
| 2026-04-22 15:51 | 29.25098 | -142.26609 | 36221 ft | 505 kts | 65° |
| 2026-04-22 15:52 | 29.27910 | -142.19219 | 36227 ft | 504 kts | 65° |
| 2026-04-22 15:52 | 29.30697 | -142.11880 | 36227 ft | 504 kts | 65° |
| 2026-04-22 15:53 | 29.33493 | -142.04504 | 36222 ft | 504 kts | 65° |
| 2026-04-22 15:53 | 29.36291 | -141.97109 | 36228 ft | 504 kts | 65° |
| 2026-04-22 15:54 | 29.39065 | -141.89761 | 36230 ft | 504 kts | 65° |
| 2026-04-22 15:54 | 29.41851 | -141.82368 | 36230 ft | 504 kts | 65° |
| 2026-04-22 15:55 | 29.44618 | -141.75009 | 36230 ft | 504 kts | 65° |
| 2026-04-22 15:55 | 29.47406 | -141.67583 | 36236 ft | 504 kts | 65° |
| 2026-04-22 15:56 | 29.50163 | -141.60223 | 36227 ft | 504 kts | 65° |
| 2026-04-22 15:56 | 29.52928 | -141.52823 | 36230 ft | 505 kts | 65° |
| 2026-04-22 15:57 | 29.55697 | -141.45401 | 36233 ft | 505 kts | 65° |
| 2026-04-22 15:57 | 29.58463 | -141.37971 | 36235 ft | 505 kts | 65° |
| 2026-04-22 15:58 | 29.61216 | -141.30560 | 36232 ft | 506 kts | 65° |
| 2026-04-22 15:58 | 29.63981 | -141.23103 | 36234 ft | 507 kts | 65° |
| 2026-04-22 15:59 | 29.66732 | -141.15668 | 36237 ft | 507 kts | 65° |
| 2026-04-22 15:59 | 29.69488 | -141.08203 | 36243 ft | 507 kts | 65° |
| 2026-04-22 16:00 | 29.72248 | -141.00713 | 36248 ft | 507 kts | 65° |
| 2026-04-22 16:00 | 29.75002 | -140.93222 | 36246 ft | 508 kts | 66° |
| 2026-04-22 16:01 | 29.77742 | -140.85754 | 36241 ft | 508 kts | 65° |
| 2026-04-22 16:01 | 29.80487 | -140.78258 | 36244 ft | 507 kts | 65° |
| 2026-04-22 16:02 | 29.83208 | -140.70811 | 36243 ft | 507 kts | 66° |
| 2026-04-22 16:02 | 29.85940 | -140.63320 | 36237 ft | 506 kts | 66° |
| 2026-04-22 16:03 | 29.88643 | -140.55891 | 36244 ft | 503 kts | 66° |
| 2026-04-22 16:03 | 29.91348 | -140.48442 | 36245 ft | 502 kts | 66° |
| 2026-04-22 16:04 | 29.94045 | -140.41001 | 36244 ft | 503 kts | 66° |
| 2026-04-22 16:04 | 29.96232 | -140.34775 | 36249 ft | 503 kts | 68° |
| 2026-04-22 16:05 | 29.99114 | -140.25988 | 36248 ft | 502 kts | 68° |
| 2026-04-22 16:05 | 30.01150 | -140.19699 | 36247 ft | 502 kts | 68° |
| 2026-04-22 16:06 | 30.04004 | -140.10928 | 36257 ft | 501 kts | 68° |
| 2026-04-22 16:06 | 30.06063 | -140.04620 | 36251 ft | 501 kts | 68° |
| 2026-04-22 16:07 | 30.08514 | -139.97104 | 36252 ft | 502 kts | 68° |
| 2026-04-22 16:07 | 30.10975 | -139.89539 | 36252 ft | 501 kts | 68° |
| 2026-04-22 16:08 | 30.13402 | -139.82060 | 36251 ft | 500 kts | 68° |
| 2026-04-22 16:08 | 30.15845 | -139.74515 | 36243 ft | 501 kts | 68° |
| 2026-04-22 16:09 | 30.18284 | -139.66963 | 36254 ft | 499 kts | 68° |
| 2026-04-22 16:09 | 30.20710 | -139.59435 | 36254 ft | 499 kts | 68° |
| 2026-04-22 16:10 | 30.23112 | -139.51966 | 36250 ft | 499 kts | 68° |
| 2026-04-22 16:10 | 30.25527 | -139.44439 | 36255 ft | 499 kts | 68° |
| 2026-04-22 16:11 | 30.27945 | -139.36884 | 36257 ft | 499 kts | 68° |
| 2026-04-22 16:11 | 30.30341 | -139.29382 | 36253 ft | 499 kts | 68° |
| 2026-04-22 16:12 | 30.32746 | -139.21830 | 36259 ft | 498 kts | 68° |
| 2026-04-22 16:12 | 30.35142 | -139.14296 | 36267 ft | 498 kts | 68° |
| 2026-04-22 16:13 | 30.37525 | -139.06788 | 36254 ft | 500 kts | 68° |
| 2026-04-22 16:13 | 30.39901 | -138.99278 | 36259 ft | 498 kts | 68° |
| 2026-04-22 16:14 | 30.42287 | -138.91719 | 36265 ft | 497 kts | 68° |
| 2026-04-22 16:14 | 30.44662 | -138.84182 | 36266 ft | 498 kts | 68° |
| 2026-04-22 16:15 | 30.47029 | -138.76653 | 36264 ft | 499 kts | 68° |
| 2026-04-22 16:15 | 30.49406 | -138.69070 | 36264 ft | 500 kts | 69° |
| 2026-04-22 16:16 | 30.51781 | -138.61475 | 36265 ft | 499 kts | 68° |
| 2026-04-22 16:16 | 30.54138 | -138.53920 | 36264 ft | 497 kts | 69° |
| 2026-04-22 16:17 | 30.56481 | -138.46398 | 36270 ft | 499 kts | 69° |
| 2026-04-22 16:17 | 30.58837 | -138.38812 | 36267 ft | 498 kts | 69° |
| 2026-04-22 16:18 | 30.61167 | -138.31294 | 36267 ft | 497 kts | 69° |
| 2026-04-22 16:18 | 30.63506 | -138.23730 | 36274 ft | 497 kts | 69° |
| 2026-04-22 16:19 | 30.65837 | -138.16169 | 36270 ft | 496 kts | 69° |
| 2026-04-22 16:19 | 30.68163 | -138.08611 | 36271 ft | 496 kts | 69° |
| 2026-04-22 16:20 | 30.70469 | -138.01100 | 36267 ft | 496 kts | 69° |
| 2026-04-22 16:20 | 30.72781 | -137.93551 | 36271 ft | 494 kts | 69° |
| 2026-04-22 16:21 | 30.75074 | -137.86047 | 36270 ft | 495 kts | 69° |
| 2026-04-22 16:21 | 30.77378 | -137.78488 | 36265 ft | 495 kts | 69° |
| 2026-04-22 16:22 | 30.80799 | -137.67232 | 36270 ft | 493 kts | 69° |
| 2026-04-22 16:23 | 30.82386 | -137.61995 | 36270 ft | 493 kts | 69° |
| 2026-04-22 16:23 | 30.84149 | -137.56170 | 36271 ft | 492 kts | 69° |
| 2026-04-22 16:24 | 30.87559 | -137.44870 | 36274 ft | 492 kts | 69° |
| 2026-04-22 16:25 | 30.89810 | -137.37390 | 36278 ft | 491 kts | 69° |
| 2026-04-22 16:25 | 30.93201 | -137.26087 | 36274 ft | 492 kts | 69° |
| 2026-04-22 16:26 | 30.95441 | -137.18596 | 36275 ft | 492 kts | 69° |
| 2026-04-22 16:26 | 30.97694 | -137.11045 | 36272 ft | 491 kts | 69° |
| 2026-04-22 16:27 | 30.99926 | -137.03546 | 36277 ft | 492 kts | 69° |
| 2026-04-22 16:27 | 31.02157 | -136.96032 | 36266 ft | 492 kts | 69° |
| 2026-04-22 16:28 | 31.04397 | -136.88470 | 36278 ft | 493 kts | 69° |
| 2026-04-22 16:28 | 31.06639 | -136.80883 | 36281 ft | 493 kts | 69° |
| 2026-04-22 16:29 | 31.08858 | -136.73354 | 36281 ft | 494 kts | 69° |
| 2026-04-22 16:29 | 31.11092 | -136.65757 | 36285 ft | 494 kts | 70° |
| 2026-04-22 16:30 | 31.13322 | -136.58155 | 36284 ft | 494 kts | 70° |
| 2026-04-22 16:30 | 31.15533 | -136.50596 | 36296 ft | 493 kts | 70° |
| 2026-04-22 16:31 | 31.17755 | -136.42985 | 36274 ft | 495 kts | 70° |
| 2026-04-22 16:31 | 31.19972 | -136.35371 | 36285 ft | 495 kts | 70° |
| 2026-04-22 16:32 | 31.22173 | -136.27789 | 36282 ft | 494 kts | 70° |
| 2026-04-22 16:32 | 31.24374 | -136.20192 | 36280 ft | 493 kts | 70° |
| 2026-04-22 16:33 | 31.26564 | -136.12614 | 36279 ft | 495 kts | 70° |
| 2026-04-22 16:33 | 31.28770 | -136.04959 | 36292 ft | 494 kts | 70° |
| 2026-04-22 16:34 | 31.30961 | -135.97339 | 36293 ft | 494 kts | 70° |
| 2026-04-22 16:34 | 31.33136 | -135.89755 | 36282 ft | 494 kts | 70° |
| 2026-04-22 16:35 | 31.35322 | -135.82114 | 36281 ft | 495 kts | 70° |
| 2026-04-22 16:35 | 31.37498 | -135.74490 | 36283 ft | 495 kts | 70° |
| 2026-04-22 16:36 | 31.39662 | -135.66885 | 36284 ft | 494 kts | 70° |
| 2026-04-22 16:36 | 31.41833 | -135.59238 | 36289 ft | 495 kts | 70° |
| 2026-04-22 16:37 | 31.44008 | -135.51561 | 36286 ft | 495 kts | 70° |
| 2026-04-22 16:37 | 31.46168 | -135.43912 | 36291 ft | 494 kts | 70° |
| 2026-04-22 16:38 | 31.48315 | -135.36289 | 36287 ft | 494 kts | 70° |
| 2026-04-22 16:38 | 31.50468 | -135.28630 | 36287 ft | 495 kts | 70° |
| 2026-04-22 16:39 | 31.52619 | -135.20955 | 36293 ft | 495 kts | 70° |
| 2026-04-22 16:39 | 31.54753 | -135.13321 | 36284 ft | 495 kts | 71° |
| 2026-04-22 16:40 | 31.56903 | -135.05610 | 36290 ft | 496 kts | 71° |
| 2026-04-22 16:41 | 31.60105 | -134.94091 | 36294 ft | 496 kts | 71° |
| 2026-04-22 16:41 | 31.62227 | -134.86429 | 36294 ft | 496 kts | 71° |
| 2026-04-22 16:42 | 31.64360 | -134.78707 | 36288 ft | 496 kts | 71° |
| 2026-04-22 16:42 | 31.66470 | -134.71053 | 36289 ft | 496 kts | 71° |
| 2026-04-22 16:43 | 31.68585 | -134.63356 | 36293 ft | 496 kts | 71° |
| 2026-04-22 16:43 | 31.70701 | -134.55639 | 36294 ft | 496 kts | 71° |
| 2026-04-22 16:44 | 31.72807 | -134.47934 | 36290 ft | 497 kts | 71° |
| 2026-04-22 16:44 | 31.74919 | -134.40189 | 36297 ft | 496 kts | 71° |
| 2026-04-22 16:45 | 31.77027 | -134.32436 | 36295 ft | 497 kts | 71° |
| 2026-04-22 16:45 | 31.79120 | -134.24718 | 36299 ft | 497 kts | 71° |
| 2026-04-22 16:46 | 31.81220 | -134.16959 | 36287 ft | 498 kts | 72° |
| 2026-04-22 16:46 | 31.83320 | -134.09173 | 36298 ft | 499 kts | 72° |
| 2026-04-22 16:47 | 31.85414 | -134.01388 | 36295 ft | 499 kts | 72° |
| 2026-04-22 16:47 | 31.87155 | -133.94900 | 36300 ft | 500 kts | 72° |
| 2026-04-22 16:48 | 31.89587 | -133.85809 | 36294 ft | 501 kts | 72° |
| 2026-04-22 16:48 | 31.91678 | -133.77975 | 36299 ft | 501 kts | 72° |
| 2026-04-22 16:49 | 31.93754 | -133.70171 | 36302 ft | 502 kts | 72° |
| 2026-04-22 16:49 | 31.95835 | -133.62329 | 36296 ft | 502 kts | 72° |
| 2026-04-22 16:50 | 31.97909 | -133.54495 | 36296 ft | 503 kts | 72° |
| 2026-04-22 16:50 | 31.99989 | -133.46611 | 36297 ft | 504 kts | 72° |
| 2026-04-22 16:51 | 32.02070 | -133.38705 | 36298 ft | 504 kts | 72° |
| 2026-04-22 16:51 | 32.04150 | -133.30776 | 36299 ft | 506 kts | 72° |
| 2026-04-22 16:52 | 32.06213 | -133.22895 | 36298 ft | 506 kts | 72° |
| 2026-04-22 16:52 | 32.07941 | -133.16272 | 36299 ft | 507 kts | 72° |
| 2026-04-22 16:53 | 32.10354 | -133.06998 | 36298 ft | 507 kts | 72° |
| 2026-04-22 16:53 | 32.12407 | -132.99088 | 36301 ft | 507 kts | 72° |
| 2026-04-22 16:54 | 32.14127 | -132.92439 | 36297 ft | 508 kts | 72° |
| 2026-04-22 16:54 | 32.16237 | -132.84467 | 36296 ft | 508 kts | 68° |
| 2026-04-22 16:55 | 32.19228 | -132.76923 | 36299 ft | 506 kts | 62° |
| 2026-04-22 16:55 | 32.22453 | -132.69576 | 36299 ft | 507 kts | 61° |
| 2026-04-22 16:56 | 32.25751 | -132.62195 | 36299 ft | 507 kts | 61° |
| 2026-04-22 16:56 | 32.29019 | -132.54847 | 36298 ft | 508 kts | 61° |
| 2026-04-22 16:57 | 32.32297 | -132.47428 | 36297 ft | 509 kts | 61° |
| 2026-04-22 16:57 | 32.35554 | -132.40028 | 36297 ft | 509 kts | 61° |
| 2026-04-22 16:58 | 32.38828 | -132.32572 | 36295 ft | 510 kts | 61° |
| 2026-04-22 16:58 | 32.42081 | -132.25150 | 36294 ft | 510 kts | 61° |
| 2026-04-22 16:59 | 32.45353 | -132.17670 | 36302 ft | 510 kts | 61° |
| 2026-04-22 16:59 | 32.48615 | -132.10198 | 36300 ft | 511 kts | 61° |
| 2026-04-22 17:00 | 32.51860 | -132.02748 | 36298 ft | 511 kts | 61° |
| 2026-04-22 17:00 | 32.56753 | -131.91487 | 36303 ft | 513 kts | 61° |
| 2026-04-22 17:01 | 32.60023 | -131.83942 | 36301 ft | 513 kts | 61° |
| 2026-04-22 17:01 | 32.63260 | -131.76458 | 36308 ft | 513 kts | 61° |
| 2026-04-22 17:02 | 32.66527 | -131.68887 | 36301 ft | 515 kts | 62° |
| 2026-04-22 17:02 | 32.69793 | -131.61302 | 36301 ft | 515 kts | 62° |
| 2026-04-22 17:03 | 32.73030 | -131.53770 | 36299 ft | 515 kts | 62° |
| 2026-04-22 17:03 | 32.76290 | -131.46167 | 36305 ft | 516 kts | 62° |
| 2026-04-22 17:04 | 32.79534 | -131.38586 | 36304 ft | 516 kts | 62° |
| 2026-04-22 17:04 | 32.82790 | -131.30959 | 36305 ft | 517 kts | 62° |
| 2026-04-22 17:05 | 32.86036 | -131.23341 | 36304 ft | 518 kts | 62° |
| 2026-04-22 17:05 | 32.89297 | -131.15671 | 36305 ft | 518 kts | 62° |
| 2026-04-22 17:06 | 32.92549 | -131.08006 | 36307 ft | 519 kts | 62° |
| 2026-04-22 17:06 | 32.95803 | -131.00317 | 36300 ft | 520 kts | 62° |
| 2026-04-22 17:07 | 32.99034 | -130.92668 | 36306 ft | 520 kts | 62° |
| 2026-04-22 17:07 | 33.02284 | -130.84957 | 36302 ft | 520 kts | 62° |
| 2026-04-22 17:08 | 33.05535 | -130.77226 | 36304 ft | 521 kts | 62° |
| 2026-04-22 17:08 | 33.08778 | -130.69496 | 36308 ft | 521 kts | 62° |
| 2026-04-22 17:09 | 33.11997 | -130.61808 | 36304 ft | 521 kts | 62° |
| 2026-04-22 17:09 | 33.15236 | -130.54054 | 36308 ft | 521 kts | 62° |
| 2026-04-22 17:10 | 33.18449 | -130.46346 | 36318 ft | 521 kts | 62° |
| 2026-04-22 17:10 | 33.21678 | -130.38581 | 36304 ft | 521 kts | 62° |
| 2026-04-22 17:11 | 33.24890 | -130.30842 | 36300 ft | 522 kts | 62° |
| 2026-04-22 17:11 | 33.28115 | -130.23051 | 36301 ft | 522 kts | 62° |
| 2026-04-22 17:12 | 33.31315 | -130.15306 | 36310 ft | 522 kts | 62° |
| 2026-04-22 17:12 | 33.34536 | -130.07492 | 36294 ft | 523 kts | 62° |
| 2026-04-22 17:13 | 33.37750 | -129.99676 | 36298 ft | 523 kts | 62° |
| 2026-04-22 17:13 | 33.40955 | -129.91865 | 36310 ft | 524 kts | 62° |
| 2026-04-22 17:14 | 33.44162 | -129.84032 | 36302 ft | 524 kts | 62° |
| 2026-04-22 17:14 | 33.47348 | -129.76233 | 36298 ft | 524 kts | 62° |
| 2026-04-22 17:15 | 33.50553 | -129.68369 | 36304 ft | 525 kts | 62° |
| 2026-04-22 17:15 | 33.53749 | -129.60508 | 36299 ft | 525 kts | 62° |
| 2026-04-22 17:16 | 33.56949 | -129.52621 | 36299 ft | 525 kts | 62° |
| 2026-04-22 17:16 | 33.60143 | -129.44727 | 36294 ft | 526 kts | 62° |
| 2026-04-22 17:17 | 33.63319 | -129.36863 | 36297 ft | 526 kts | 62° |
| 2026-04-22 17:17 | 33.66509 | -129.28945 | 36298 ft | 526 kts | 62° |
| 2026-04-22 17:18 | 33.69680 | -129.21056 | 36298 ft | 527 kts | 62° |
| 2026-04-22 17:18 | 33.72865 | -129.13115 | 36298 ft | 527 kts | 62° |
| 2026-04-22 17:19 | 33.79205 | -128.97248 | 36298 ft | 527 kts | 62° |
| 2026-04-22 17:20 | 33.85427 | -128.81261 | 36297 ft | 529 kts | 70° |
| 2026-04-22 17:21 | 33.86392 | -128.76969 | 36295 ft | 529 kts | 81° |
| 2026-04-22 17:21 | 33.87047 | -128.68145 | 36298 ft | 529 kts | 88° |
| 2026-04-22 17:22 | 33.87380 | -128.54880 | 36298 ft | 531 kts | 90° |
| 2026-04-22 17:23 | 33.87670 | -128.41582 | 36294 ft | 531 kts | 89° |
| 2026-04-22 17:23 | 33.87999 | -128.28253 | 36298 ft | 531 kts | 89° |
| 2026-04-22 17:24 | 33.88216 | -128.19365 | 36298 ft | 531 kts | 89° |
| 2026-04-22 17:24 | 33.88424 | -128.10524 | 36296 ft | 532 kts | 89° |
| 2026-04-22 17:25 | 33.88628 | -128.01586 | 36295 ft | 533 kts | 89° |
| 2026-04-22 17:25 | 33.88823 | -127.92722 | 36298 ft | 533 kts | 90° |
| 2026-04-22 17:26 | 33.89013 | -127.83775 | 36298 ft | 534 kts | 90° |
| 2026-04-22 17:26 | 33.89197 | -127.74825 | 36298 ft | 534 kts | 90° |
| 2026-04-22 17:27 | 33.89373 | -127.65938 | 36296 ft | 534 kts | 90° |
| 2026-04-22 17:27 | 33.89544 | -127.56961 | 36295 ft | 535 kts | 90° |
| 2026-04-22 17:28 | 33.89708 | -127.48039 | 36295 ft | 535 kts | 90° |
| 2026-04-22 17:28 | 33.89866 | -127.39054 | 36293 ft | 538 kts | 90° |
| 2026-04-22 17:29 | 33.90018 | -127.30081 | 36295 ft | 538 kts | 90° |
| 2026-04-22 17:29 | 33.90165 | -127.21057 | 36301 ft | 539 kts | 90° |
| 2026-04-22 17:30 | 33.90305 | -127.12023 | 36296 ft | 539 kts | 90° |
| 2026-04-22 17:30 | 33.90437 | -127.03020 | 36293 ft | 539 kts | 90° |
| 2026-04-22 17:31 | 33.90563 | -126.94022 | 36294 ft | 540 kts | 90° |
| 2026-04-22 17:31 | 33.90684 | -126.84946 | 36261 ft | 541 kts | 90° |
| 2026-04-22 17:32 | 33.90797 | -126.75911 | 36293 ft | 543 kts | 90° |
| 2026-04-22 17:32 | 33.90905 | -126.66794 | 36292 ft | 544 kts | 90° |
| 2026-04-22 17:33 | 33.91006 | -126.57708 | 36295 ft | 544 kts | 91° |
| 2026-04-22 17:33 | 33.91100 | -126.48568 | 36309 ft | 544 kts | 91° |
| 2026-04-22 17:34 | 33.91188 | -126.39479 | 36293 ft | 545 kts | 91° |
| 2026-04-22 17:34 | 33.91269 | -126.30338 | 36292 ft | 545 kts | 91° |
| 2026-04-22 17:35 | 33.91343 | -126.21199 | 36258 ft | 546 kts | 91° |
| 2026-04-22 17:35 | 33.91410 | -126.12080 | 36294 ft | 549 kts | 91° |
| 2026-04-22 17:36 | 33.91472 | -126.02854 | 36292 ft | 550 kts | 91° |
| 2026-04-22 17:36 | 33.91526 | -125.93711 | 36293 ft | 550 kts | 91° |
| 2026-04-22 17:37 | 33.91574 | -125.84470 | 36290 ft | 550 kts | 91° |
| 2026-04-22 17:37 | 33.91615 | -125.75302 | 36309 ft | 550 kts | 91° |
| 2026-04-22 17:38 | 33.91648 | -125.66062 | 36286 ft | 550 kts | 91° |
| 2026-04-22 17:38 | 33.91675 | -125.56898 | 36265 ft | 550 kts | 91° |
| 2026-04-22 17:39 | 33.91695 | -125.47651 | 36297 ft | 552 kts | 91° |
| 2026-04-22 17:40 | 33.91713 | -125.33815 | 36290 ft | 553 kts | 91° |
| 2026-04-22 17:40 | 33.91716 | -125.24517 | 36303 ft | 553 kts | 91° |
| 2026-04-22 17:41 | 33.91712 | -125.15298 | 36290 ft | 553 kts | 91° |
| 2026-04-22 17:41 | 33.91701 | -125.06003 | 36291 ft | 553 kts | 92° |
| 2026-04-22 17:42 | 33.91684 | -124.96726 | 36292 ft | 554 kts | 91° |
| 2026-04-22 17:42 | 33.92289 | -124.89053 | 36258 ft | 554 kts | 79° |
| 2026-04-22 17:43 | 33.94123 | -124.78456 | 36289 ft | 557 kts | 76° |
| 2026-04-22 17:43 | 33.95576 | -124.70870 | 36292 ft | 557 kts | 76° |
| 2026-04-22 17:44 | 33.97605 | -124.60279 | 36284 ft | 558 kts | 76° |
| 2026-04-22 17:44 | 33.99045 | -124.52633 | 36287 ft | 558 kts | 76° |
| 2026-04-22 17:45 | 34.00733 | -124.43567 | 36290 ft | 558 kts | 76° |
| 2026-04-22 17:45 | 34.02424 | -124.34431 | 36283 ft | 558 kts | 76° |
| 2026-04-22 17:46 | 34.04100 | -124.25340 | 36279 ft | 558 kts | 76° |
| 2026-04-22 17:46 | 34.05777 | -124.16203 | 36283 ft | 558 kts | 76° |
| 2026-04-22 17:47 | 34.07449 | -124.07059 | 36282 ft | 558 kts | 77° |
| 2026-04-22 17:47 | 34.09115 | -123.97904 | 36276 ft | 558 kts | 77° |
| 2026-04-22 17:48 | 34.10765 | -123.88799 | 36281 ft | 557 kts | 77° |
| 2026-04-22 17:48 | 34.12417 | -123.79644 | 36282 ft | 557 kts | 77° |
| 2026-04-22 17:49 | 34.14062 | -123.70482 | 36279 ft | 557 kts | 77° |
| 2026-04-22 17:49 | 34.15686 | -123.61397 | 36276 ft | 557 kts | 77° |
| 2026-04-22 17:50 | 34.17318 | -123.52228 | 36280 ft | 557 kts | 77° |
| 2026-04-22 17:50 | 34.18942 | -123.43059 | 36279 ft | 557 kts | 77° |
| 2026-04-22 17:51 | 34.20547 | -123.33957 | 36276 ft | 557 kts | 77° |
| 2026-04-22 17:51 | 34.22158 | -123.24783 | 36098 ft | 558 kts | 77° |
| 2026-04-22 17:51 | 34.22965 | -123.20170 | 35556 ft | 559 kts | 77° |
| 2026-04-22 17:52 | 34.23766 | -123.15582 | 35330 ft | 555 kts | 77° |
| 2026-04-22 17:52 | 34.24665 | -123.06423 | 35275 ft | 552 kts | 91° |
| 2026-04-22 17:53 | 34.24452 | -122.97123 | 35272 ft | 553 kts | 94° |
| 2026-04-22 17:53 | 34.24025 | -122.87882 | 35279 ft | 553 kts | 95° |
| 2026-04-22 17:54 | 34.23566 | -122.78590 | 35272 ft | 553 kts | 95° |
| 2026-04-22 17:54 | 34.23121 | -122.69294 | 35270 ft | 553 kts | 95° |
| 2026-04-22 17:55 | 34.22686 | -122.60054 | 35287 ft | 553 kts | 95° |
| 2026-04-22 17:55 | 34.22247 | -122.50774 | 35236 ft | 553 kts | 95° |
| 2026-04-22 17:56 | 34.21801 | -122.41531 | 35268 ft | 553 kts | 95° |
| 2026-04-22 17:56 | 34.21345 | -122.32234 | 35273 ft | 553 kts | 95° |
| 2026-04-22 17:57 | 34.20883 | -122.22961 | 35268 ft | 553 kts | 95° |
| 2026-04-22 17:57 | 34.20414 | -122.13686 | 35271 ft | 553 kts | 95° |
| 2026-04-22 17:58 | 34.19940 | -122.04460 | 35274 ft | 553 kts | 95° |
| 2026-04-22 17:58 | 34.19456 | -121.95172 | 35262 ft | 553 kts | 95° |
| 2026-04-22 17:59 | 34.18968 | -121.85930 | 35249 ft | 553 kts | 95° |
| 2026-04-22 17:59 | 34.18469 | -121.76634 | 35269 ft | 554 kts | 95° |
| 2026-04-22 18:00 | 34.18049 | -121.68902 | 35265 ft | 554 kts | 95° |
| 2026-04-22 18:00 | 34.17451 | -121.58039 | 35268 ft | 554 kts | 95° |
| 2026-04-22 18:00 | 34.17191 | -121.53375 | 35012 ft | 554 kts | 95° |
| 2026-04-22 18:01 | 34.16932 | -121.48768 | 34548 ft | 553 kts | 95° |
| 2026-04-22 18:01 | 34.16671 | -121.44156 | 34269 ft | 547 kts | 95° |
| 2026-04-22 18:01 | 34.16411 | -121.39572 | 33817 ft | 543 kts | 95° |
| 2026-04-22 18:01 | 34.16151 | -121.35027 | 33260 ft | 542 kts | 95° |
| 2026-04-22 18:02 | 34.15889 | -121.30487 | 32671 ft | 542 kts | 95° |
| 2026-04-22 18:02 | 34.15628 | -121.25992 | 32075 ft | 543 kts | 95° |
| 2026-04-22 18:02 | 34.15362 | -121.21440 | 31483 ft | 543 kts | 95° |
| 2026-04-22 18:02 | 34.15094 | -121.16877 | 30860 ft | 544 kts | 95° |
| 2026-04-22 18:03 | 34.14825 | -121.12324 | 30247 ft | 545 kts | 95° |
| 2026-04-22 18:03 | 34.14554 | -121.07752 | 29523 ft | 545 kts | 95° |
| 2026-04-22 18:03 | 34.14280 | -121.03177 | 28814 ft | 546 kts | 95° |
| 2026-04-22 18:03 | 34.14048 | -120.98669 | 28215 ft | 544 kts | 91° |
| 2026-04-22 18:04 | 34.14235 | -120.94056 | 27686 ft | 541 kts | 85° |
| 2026-04-22 18:04 | 34.14587 | -120.89604 | 27189 ft | 537 kts | 84° |
| 2026-04-22 18:04 | 34.14963 | -120.85131 | 26704 ft | 534 kts | 84° |
| 2026-04-22 18:04 | 34.15335 | -120.80680 | 26218 ft | 530 kts | 84° |
| 2026-04-22 18:05 | 34.15699 | -120.76264 | 25764 ft | 526 kts | 84° |
| 2026-04-22 18:05 | 34.16056 | -120.71874 | 25292 ft | 522 kts | 84° |
| 2026-04-22 18:05 | 34.16402 | -120.67577 | 24846 ft | 518 kts | 84° |
| 2026-04-22 18:05 | 34.16747 | -120.63268 | 24388 ft | 514 kts | 84° |
| 2026-04-22 18:06 | 34.17090 | -120.58966 | 23937 ft | 511 kts | 84° |
| 2026-04-22 18:06 | 34.17427 | -120.54705 | 23429 ft | 507 kts | 84° |
| 2026-04-22 18:06 | 34.17761 | -120.50466 | 22901 ft | 503 kts | 84° |
| 2026-04-22 18:06 | 34.18085 | -120.46323 | 22427 ft | 499 kts | 84° |
| 2026-04-22 18:07 | 34.18410 | -120.42164 | 21957 ft | 494 kts | 84° |
| 2026-04-22 18:07 | 34.18731 | -120.38022 | 21494 ft | 490 kts | 84° |
| 2026-04-22 18:07 | 34.19047 | -120.33944 | 21042 ft | 487 kts | 84° |
| 2026-04-22 18:07 | 34.19297 | -120.29861 | 20504 ft | 485 kts | 86° |
| 2026-04-22 18:08 | 34.19460 | -120.25807 | 20056 ft | 480 kts | 87° |
| 2026-04-22 18:08 | 34.19605 | -120.21840 | 19655 ft | 475 kts | 87° |
| 2026-04-22 18:08 | 34.19749 | -120.17892 | 19443 ft | 464 kts | 87° |
| 2026-04-22 18:08 | 34.19891 | -120.14029 | 19264 ft | 454 kts | 86° |
| 2026-04-22 18:09 | 34.20029 | -120.10279 | 19072 ft | 440 kts | 87° |
| 2026-04-22 18:09 | 34.20147 | -120.06644 | 18735 ft | 426 kts | 89° |
| 2026-04-22 18:09 | 34.20141 | -120.03083 | 18368 ft | 420 kts | 90° |
| 2026-04-22 18:09 | 34.20094 | -119.99563 | 18018 ft | 416 kts | 90° |
| 2026-04-22 18:10 | 34.20044 | -119.96132 | 17648 ft | 412 kts | 90° |
| 2026-04-22 18:10 | 34.19995 | -119.92676 | 17271 ft | 409 kts | 90° |
| 2026-04-22 18:10 | 34.19947 | -119.89248 | 16896 ft | 406 kts | 90° |
| 2026-04-22 18:10 | 34.19899 | -119.85844 | 16528 ft | 403 kts | 90° |
| 2026-04-22 18:11 | 34.19852 | -119.82507 | 16163 ft | 400 kts | 90° |
| 2026-04-22 18:11 | 34.19805 | -119.79146 | 15781 ft | 398 kts | 90° |
| 2026-04-22 18:11 | 34.19757 | -119.75815 | 15408 ft | 395 kts | 90° |
| 2026-04-22 18:11 | 34.19708 | -119.72501 | 15057 ft | 392 kts | 90° |
| 2026-04-22 18:12 | 34.19659 | -119.69221 | 14701 ft | 389 kts | 90° |
| 2026-04-22 18:12 | 34.19610 | -119.65984 | 14353 ft | 386 kts | 90° |
| 2026-04-22 18:12 | 34.19577 | -119.63797 | 14096 ft | 385 kts | 90° |
| 2026-04-22 18:12 | 34.19510 | -119.59534 | 13608 ft | 381 kts | 90° |
| 2026-04-22 18:13 | 34.19459 | -119.56342 | 13493 ft | 378 kts | 90° |
| 2026-04-22 18:13 | 34.19408 | -119.53160 | 13487 ft | 379 kts | 90° |
| 2026-04-22 18:13 | 34.19356 | -119.49968 | 13224 ft | 380 kts | 90° |
| 2026-04-22 18:13 | 34.19303 | -119.46786 | 12713 ft | 382 kts | 90° |
| 2026-04-22 18:14 | 34.19249 | -119.43611 | 12489 ft | 374 kts | 90° |
| 2026-04-22 18:14 | 34.19195 | -119.40482 | 12171 ft | 368 kts | 90° |
| 2026-04-22 18:14 | 34.19141 | -119.37404 | 11830 ft | 364 kts | 90° |
| 2026-04-22 18:14 | 34.19090 | -119.34354 | 11464 ft | 361 kts | 90° |
| 2026-04-22 18:15 | 34.19041 | -119.31332 | 11123 ft | 358 kts | 90° |
| 2026-04-22 18:15 | 34.18993 | -119.28334 | 10995 ft | 356 kts | 90° |
| 2026-04-22 18:15 | 34.18944 | -119.25371 | 10988 ft | 356 kts | 90° |
| 2026-04-22 18:15 | 34.18894 | -119.22367 | 10998 ft | 358 kts | 90° |
| 2026-04-22 18:16 | 34.18843 | -119.19355 | 10990 ft | 359 kts | 90° |
| 2026-04-22 18:16 | 34.18791 | -119.16342 | 10987 ft | 355 kts | 90° |
| 2026-04-22 18:16 | 34.18739 | -119.13416 | 10986 ft | 339 kts | 90° |
| 2026-04-22 18:16 | 34.18689 | -119.10641 | 10980 ft | 325 kts | 90° |
| 2026-04-22 18:17 | 34.18628 | -119.07917 | 10989 ft | 325 kts | 93° |
| 2026-04-22 18:17 | 34.18173 | -119.05286 | 10991 ft | 324 kts | 111° |
| 2026-04-22 18:17 | 34.17286 | -119.02782 | 10993 ft | 324 kts | 116° |
| 2026-04-22 18:17 | 34.16312 | -119.00308 | 10874 ft | 326 kts | 116° |
| 2026-04-22 18:18 | 34.15336 | -118.97854 | 10479 ft | 328 kts | 116° |
| 2026-04-22 18:18 | 34.14359 | -118.95384 | 10288 ft | 322 kts | 116° |
| 2026-04-22 18:18 | 34.13401 | -118.92955 | 10054 ft | 318 kts | 116° |
| 2026-04-22 18:18 | 34.12458 | -118.90550 | 9996 ft | 317 kts | 116° |
| 2026-04-22 18:19 | 34.11510 | -118.88132 | 9986 ft | 318 kts | 116° |
| 2026-04-22 18:19 | 34.10558 | -118.85712 | 9981 ft | 318 kts | 116° |
| 2026-04-22 18:19 | 34.09609 | -118.83296 | 9978 ft | 317 kts | 116° |
| 2026-04-22 18:19 | 34.08663 | -118.80889 | 9983 ft | 317 kts | 116° |
| 2026-04-22 18:20 | 34.07717 | -118.78485 | 9979 ft | 317 kts | 116° |
| 2026-04-22 18:20 | 34.06781 | -118.76105 | 9974 ft | 317 kts | 116° |
| 2026-04-22 18:20 | 34.05838 | -118.73700 | 9984 ft | 318 kts | 116° |
| 2026-04-22 18:20 | 34.04891 | -118.71277 | 9889 ft | 318 kts | 116° |
| 2026-04-22 18:21 | 34.03938 | -118.68849 | 9454 ft | 316 kts | 116° |
| 2026-04-22 18:21 | 34.03098 | -118.66444 | 9216 ft | 306 kts | 105° |
| 2026-04-22 18:21 | 34.02711 | -118.63975 | 8988 ft | 300 kts | 96° |
| 2026-04-22 18:21 | 34.02468 | -118.61481 | 8725 ft | 296 kts | 95° |
| 2026-04-22 18:22 | 34.02249 | -118.59025 | 8441 ft | 294 kts | 95° |
| 2026-04-22 18:22 | 34.02028 | -118.56581 | 8163 ft | 291 kts | 95° |
| 2026-04-22 18:22 | 34.01807 | -118.54168 | 8013 ft | 288 kts | 95° |
| 2026-04-22 18:22 | 34.01587 | -118.51792 | 7996 ft | 289 kts | 95° |
| 2026-04-22 18:23 | 34.01360 | -118.49355 | 7601 ft | 296 kts | 95° |
| 2026-04-22 18:23 | 34.01133 | -118.46906 | 7375 ft | 288 kts | 94° |
| 2026-04-22 18:23 | 34.01208 | -118.44565 | 7040 ft | 278 kts | 79° |
| 2026-04-22 18:24 | 34.01957 | -118.40068 | 6160 ft | 270 kts | 76° |
| 2026-04-22 18:24 | 34.02354 | -118.37846 | 6002 ft | 270 kts | 76° |
| 2026-04-22 18:24 | 34.02965 | -118.33379 | 5996 ft | 267 kts | 81° |
| 2026-04-22 18:25 | 34.03195 | -118.31194 | 6001 ft | 266 kts | 81° |
| 2026-04-22 18:25 | 34.03439 | -118.28928 | 5823 ft | 279 kts | 82° |
| 2026-04-22 18:25 | 34.03704 | -118.26551 | 5230 ft | 291 kts | 82° |
| 2026-04-22 18:26 | 34.04231 | -118.21839 | 4809 ft | 274 kts | 82° |
| 2026-04-22 18:26 | 34.04483 | -118.19576 | 4311 ft | 271 kts | 82° |
| 2026-04-22 18:26 | 34.04730 | -118.17350 | 3857 ft | 272 kts | 83° |
| 2026-04-22 18:26 | 34.04966 | -118.15112 | 3430 ft | 267 kts | 86° |
| 2026-04-22 18:27 | 34.04705 | -118.12944 | 2880 ft | 261 kts | 115° |
| 2026-04-22 18:27 | 34.03638 | -118.11219 | 2349 ft | 256 kts | 144° |
| 2026-04-22 18:27 | 34.02096 | -118.10219 | 2047 ft | 250 kts | 159° |
| 2026-04-22 18:27 | 34.00447 | -118.09581 | 1994 ft | 248 kts | 175° |
| 2026-04-22 18:28 | 33.98799 | -118.09838 | 1981 ft | 229 kts | 205° |
| 2026-04-22 18:28 | 33.97672 | -118.10967 | 1989 ft | 204 kts | 238° |
| 2026-04-22 18:28 | 33.97219 | -118.12486 | 2005 ft | 185 kts | 258° |
| 2026-04-22 18:28 | 33.97022 | -118.13995 | 1990 ft | 180 kts | 261° |
| 2026-04-22 18:29 | 33.96910 | -118.14992 | 1988 ft | 181 kts | 261° |
| 2026-04-22 18:29 | 33.96646 | -118.16975 | 2005 ft | 180 kts | 259° |
| 2026-04-22 18:29 | 33.96481 | -118.17973 | 2000 ft | 180 kts | 256° |
| 2026-04-22 18:29 | 33.96201 | -118.19447 | 2005 ft | 180 kts | 255° |
| 2026-04-22 18:30 | 33.95919 | -118.20904 | 2004 ft | 180 kts | 256° |
| 2026-04-22 18:30 | 33.95371 | -118.23707 | 1993 ft | 160 kts | 256° |
| 2026-04-22 18:30 | 33.95119 | -118.25012 | 2010 ft | 160 kts | 256° |
| 2026-04-22 18:31 | 33.94865 | -118.26328 | 2014 ft | 161 kts | 257° |
| 2026-04-22 18:31 | 33.94693 | -118.27654 | 2007 ft | 162 kts | 263° |
| 2026-04-22 18:31 | 33.94668 | -118.29040 | 2032 ft | 169 kts | 265° |
| 2026-04-22 18:31 | 33.94499 | -118.30389 | 1920 ft | 160 kts | 257° |
| 2026-04-22 18:32 | 33.94337 | -118.31725 | 1521 ft | 161 kts | 263° |
| 2026-04-22 18:32 | 33.94234 | -118.33046 | 1146 ft | 160 kts | 264° |
| 2026-04-22 18:32 | 33.94131 | -118.34348 | 884 ft | 151 kts | 263° |
| 2026-04-22 18:32 | 33.94003 | -118.35581 | 656 ft | 147 kts | 263° |
| 2026-04-22 18:33 | 33.93884 | -118.36781 | 384 ft | 144 kts | 269° |
| 2026-04-22 18:33 | 33.93759 | -118.37980 | 224 ft | 145 kts | 270° |
| 2026-04-22 18:33 | 33.93640 | -118.39136 | 109 ft | 129 kts | 271° |
| 2026-04-22 18:33 | 33.93554 | -118.40134 | 296 ft | 118 kts | 268° |
| 2026-04-22 18:34 | 33.93465 | -118.41169 | 678 ft | 134 kts | 269° |
| 2026-04-22 18:34 | 33.93220 | -118.42349 | 1088 ft | 157 kts | 256° |
| 2026-04-22 18:34 | 33.92838 | -118.43683 | 1620 ft | 176 kts | 253° |
| 2026-04-22 18:34 | 33.92015 | -118.44778 | 1988 ft | 186 kts | 219° |
| 2026-04-22 18:35 | 33.90983 | -118.45744 | 2426 ft | 191 kts | 232° |
| 2026-04-22 18:35 | 33.90042 | -118.47002 | 2466 ft | 218 kts | 237° |
| 2026-04-22 18:35 | 33.89084 | -118.48532 | 2292 ft | 234 kts | 240° |
| 2026-04-22 18:35 | 33.88144 | -118.50156 | 2195 ft | 237 kts | 242° |
| 2026-04-22 18:36 | 33.87253 | -118.51832 | 2128 ft | 237 kts | 245° |
| 2026-04-22 18:36 | 33.86307 | -118.53417 | 1929 ft | 237 kts | 233° |
| 2026-04-22 18:36 | 33.85209 | -118.54893 | 1981 ft | 235 kts | 236° |
| 2026-04-22 18:36 | 33.84185 | -118.56422 | 2035 ft | 235 kts | 237° |
| 2026-04-22 18:37 | 33.83076 | -118.57897 | 2045 ft | 237 kts | 231° |
| 2026-04-22 18:37 | 33.81812 | -118.59144 | 2052 ft | 239 kts | 218° |
| 2026-04-22 18:37 | 33.80350 | -118.60110 | 2109 ft | 239 kts | 213° |
| 2026-04-22 18:37 | 33.78841 | -118.60954 | 2104 ft | 238 kts | 212° |
| 2026-04-22 18:38 | 33.77314 | -118.61732 | 1994 ft | 240 kts | 204° |
| 2026-04-22 18:38 | 33.75674 | -118.62002 | 1985 ft | 242 kts | 187° |
| 2026-04-22 18:38 | 33.73993 | -118.61849 | 2002 ft | 242 kts | 180° |
| 2026-04-22 18:39 | 33.70714 | -118.60952 | 1980 ft | 249 kts | 158° |
| 2026-04-22 18:39 | 33.69370 | -118.59616 | 1999 ft | 255 kts | 135° |
| 2026-04-22 18:39 | 33.68527 | -118.57772 | 1993 ft | 257 kts | 114° |
| 2026-04-22 18:39 | 33.68296 | -118.55643 | 1998 ft | 259 kts | 91° |
| 2026-04-22 18:40 | 33.68538 | -118.53519 | 2022 ft | 254 kts | 86° |
| 2026-04-22 18:40 | 33.68821 | -118.51443 | 2290 ft | 251 kts | 82° |
| 2026-04-22 18:40 | 33.69110 | -118.49363 | 2822 ft | 253 kts | 82° |
| 2026-04-22 18:40 | 33.69392 | -118.47280 | 3450 ft | 252 kts | 82° |
| 2026-04-22 18:41 | 33.69685 | -118.45214 | 3869 ft | 254 kts | 77° |
| 2026-04-22 18:41 | 33.70258 | -118.43198 | 3993 ft | 256 kts | 68° |
| 2026-04-22 18:41 | 33.71009 | -118.41248 | 3994 ft | 256 kts | 64° |
| 2026-04-22 18:41 | 33.71832 | -118.39355 | 3992 ft | 255 kts | 62° |
| 2026-04-22 18:42 | 33.72670 | -118.37473 | 3991 ft | 255 kts | 63° |
| 2026-04-22 18:42 | 33.73573 | -118.35636 | 3993 ft | 255 kts | 53° |
| 2026-04-22 18:42 | 33.74761 | -118.34096 | 3984 ft | 253 kts | 44° |
| 2026-04-22 18:42 | 33.76064 | -118.32667 | 4008 ft | 253 kts | 42° |
| 2026-04-22 18:43 | 33.77378 | -118.31256 | 4015 ft | 253 kts | 43° |
| 2026-04-22 18:43 | 33.78691 | -118.29854 | 4009 ft | 252 kts | 41° |
| 2026-04-22 18:43 | 33.80010 | -118.28455 | 3918 ft | 254 kts | 43° |
| 2026-04-22 18:43 | 33.81362 | -118.27041 | 3479 ft | 257 kts | 43° |
| 2026-04-22 18:44 | 33.82711 | -118.25654 | 3130 ft | 253 kts | 43° |
| 2026-04-22 18:44 | 33.84028 | -118.24306 | 2992 ft | 251 kts | 42° |
| 2026-04-22 18:44 | 33.85364 | -118.22941 | 2996 ft | 252 kts | 42° |
| 2026-04-22 18:44 | 33.86702 | -118.21570 | 2989 ft | 251 kts | 42° |
| 2026-04-22 18:45 | 33.88049 | -118.20270 | 2981 ft | 252 kts | 33° |
| 2026-04-22 18:45 | 33.89703 | -118.19604 | 2993 ft | 252 kts | 7° |
| 2026-04-22 18:45 | 33.91449 | -118.19670 | 2992 ft | 250 kts | 354° |
| 2026-04-22 18:45 | 33.93189 | -118.20018 | 2994 ft | 249 kts | 340° |
| 2026-04-22 18:46 | 33.94566 | -118.21196 | 2905 ft | 248 kts | 307° |
| 2026-04-22 18:46 | 33.95225 | -118.23080 | 2639 ft | 243 kts | 280° |
| 2026-04-22 18:46 | 33.95212 | -118.25085 | 2307 ft | 237 kts | 262° |
| 2026-04-22 18:46 | 33.94918 | -118.27013 | 1990 ft | 237 kts | 261° |
| 2026-04-22 18:47 | 33.94698 | -118.28941 | 1679 ft | 224 kts | 265° |
| 2026-04-22 18:47 | 33.94526 | -118.30744 | 1391 ft | 208 kts | 264° |
| 2026-04-22 18:47 | 33.94349 | -118.32418 | 1117 ft | 195 kts | 263° |
| 2026-04-22 18:47 | 33.94186 | -118.33978 | 842 ft | 180 kts | 263° |
| 2026-04-22 18:48 | 33.94035 | -118.35422 | 609 ft | 167 kts | 263° |
| 2026-04-22 18:48 | 33.93900 | -118.36749 | 376 ft | 155 kts | 262° |
| 2026-04-22 18:48 | 33.93765 | -118.37975 | 211 ft | 142 kts | 263° |
| 2026-04-22 18:48 | 33.93646 | -118.39131 | 101 ft | 135 kts | 265° |
| 2026-04-22 18:49 | 33.93558 | -118.40040 | 99 ft | 70 kts | 264° |
| 2026-04-22 18:49 | 33.93536 | -118.40364 | 99 ft | 23 kts | 271° |
| 2026-04-22 18:49 | 33.93560 | -118.40537 | 100 ft | 18 kts | 288° |
| 2026-04-22 18:49 | 33.93597 | -118.40658 | 101 ft | 10 kts | 282° |
| 2026-04-22 18:50 | 33.93594 | -118.40732 | 100 ft | 9 kts | 267° |
| 2026-04-22 18:50 | 33.93592 | -118.40808 | 97 ft | 9 kts | 267° |
| 2026-04-22 18:50 | 33.93602 | -118.40867 | 99 ft | 6 kts | 304° |
| 2026-04-22 18:50 | 33.93631 | -118.40888 | 101 ft | 3 kts | 341° |
| 2026-04-22 18:51 | 33.93653 | -118.40894 | 101 ft | 4 kts | 348° |
| 2026-04-22 18:51 | 33.93721 | -118.40906 | 99 ft | 8 kts | 354° |
| 2026-04-22 18:51 | 33.93739 | -118.40909 | 101 ft | 1 kts | 354° |
| 2026-04-22 18:51 | 33.93760 | -118.40911 | 99 ft | 8 kts | 354° |
| 2026-04-22 18:52 | 33.93830 | -118.40920 | 98 ft | 11 kts | 354° |
| 2026-04-22 18:52 | 33.93869 | -118.40880 | 97 ft | 7 kts | 70° |
| 2026-04-22 18:52 | 33.93892 | -118.40827 | 98 ft | 7 kts | 40° |
| 2026-04-22 18:52 | 33.93956 | -118.40817 | 99 ft | 11 kts | 355° |
| 2026-04-22 18:53 | 33.94030 | -118.40826 | 100 ft | 10 kts | 1° |
| 2026-04-22 18:53 | 33.94043 | -118.40827 | 99 ft | 0 kts | 356° |
| 2026-04-22 18:53 | 33.94059 | -118.40826 | 97 ft | 5 kts | 7° |
| 2026-04-22 18:53 | 33.94083 | -118.40802 | 96 ft | 4 kts | 56° |
| 2026-04-22 18:54 | 33.94097 | -118.40767 | 99 ft | 5 kts | 67° |
| 2026-04-22 18:54 | 33.94103 | -118.40750 | 100 ft | 2 kts | 67° |
| 2026-04-22 18:54 | 33.94104 | -118.40746 | 99 ft | 0 kts | 67° |